CCGS Samuel Risley — CG2960 — position and weather

sailwx.info

Track history (hours):
 
Tides and Currents Weather Stations Pressure Air Temp Water Temp Dewpoint Dewpoint Depression Visibility Wind Speed Wind Dir Waves Ship Positions

CCGS Samuel Risley (Canada)

Medium Navaids Tender - Light Icebreaker

Last reported at 2014-Jun-26 22:09 UTC. Time now 2014-Jul-23 23:47 UTC.
Position N 46°06' W 083°31'.
Warning: this ship's position is 27 days out of date.

Length 69.73 m; beam 13.7 m; draft 5.2 m.

Type: SAR. MMSI: 316001890.

Date/timePositionNaut miles runAvg speedWind from/ knotsBaromVisibWave heightAir tempDewpointWater temp
2014-Jun-26 22:09N 46°06' W 083°31'1710.0
2014-Jun-26 20:26N 46°03' W 083°56'  
2014-Jun-21 14:33N 46°22' W 084°12'8 7.8
2014-Jun-21 13:33N 46°15' W 084°06'9 9.5
2014-Jun-21 12:33N 46°07' W 084°01'1010.1
2014-Jun-21 11:33N 45°58' W 083°53'8 7.9
2014-Jun-21 10:33N 45°52' W 083°45'8 7.5
2014-Jun-21 09:33N 45°49' W 083°36'7 7.4
2014-Jun-21 08:33N 45°45' W 083°27'11 7.5
2014-Jun-21 07:04N 45°39' W 083°13'  
Track history (hours):
 
Tides and Currents Weather Stations Pressure Air Temp Water Temp Dewpoint Dewpoint Depression Visibility Wind Speed Wind Dir Waves Ship Positions

CCGS Samuel Risley (Canada)

Medium Navaids Tender - Light Icebreaker

Last reported at 2014-Jun-26 22:09 UTC. Time now 2014-Jul-23 23:47 UTC.
Position N 46°06' W 083°31'.
Warning: this ship's position is 27 days out of date.

Length 69.73 m; beam 13.7 m; draft 5.2 m.

Type: SAR. MMSI: 316001890.

Date/timePositionNaut miles runAvg speedWind from/ knotsBaromVisibWave heightAir tempDewpointWater temp
2014-Jun-26 22:09N 46°06' W 083°31'1710.0
2014-Jun-26 20:26N 46°03' W 083°56'  
2014-Jun-21 14:33N 46°22' W 084°12'8 7.8
2014-Jun-21 13:33N 46°15' W 084°06'9 9.5
2014-Jun-21 12:33N 46°07' W 084°01'1010.1
2014-Jun-21 11:33N 45°58' W 083°53'8 7.9
2014-Jun-21 10:33N 45°52' W 083°45'8 7.5
2014-Jun-21 09:33N 45°49' W 083°36'7 7.4
2014-Jun-21 08:33N 45°45' W 083°27'11 7.5
2014-Jun-21 07:04N 45°39' W 083°13'  

Dump ship's entire track history